createdAt,value
2018-12-11T00:02:16.801Z,64.26
2018-12-11T00:04:45.498Z,63.68
2018-12-11T00:07:14.667Z,63.73
2018-12-11T00:09:43.373Z,63.38
2018-12-11T00:12:12.082Z,63.29
2018-12-11T00:14:40.801Z,63.61
2018-12-11T00:17:09.508Z,63.71
2018-12-11T00:19:38.214Z,63.55
2018-12-11T00:22:06.918Z,63.80
2018-12-11T00:24:35.659Z,63.13
2018-12-11T00:27:04.357Z,63.15
2018-12-11T00:29:33.066Z,63.49
2018-12-11T00:32:01.764Z,63.37
2018-12-11T00:34:30.444Z,63.53
2018-12-11T00:36:59.197Z,63.85
2018-12-11T00:39:27.869Z,64.29
2018-12-11T00:41:56.670Z,63.85
2018-12-11T00:44:25.535Z,64.72
2018-12-11T00:46:54.270Z,64.94
2018-12-11T00:49:23.036Z,64.92
2018-12-11T00:51:51.758Z,64.76
2018-12-11T00:54:20.468Z,64.98
2018-12-11T00:56:49.138Z,65.05
2018-12-11T00:59:18.293Z,65.40
2018-12-11T01:01:46.982Z,65.09
2018-12-11T01:04:15.710Z,65.28
2018-12-11T01:06:44.549Z,65.52
2018-12-11T01:09:13.347Z,65.55
2018-12-11T01:11:42.290Z,66.06
2018-12-11T01:14:11.035Z,65.70
2018-12-11T01:16:39.762Z,66.29
2018-12-11T01:19:08.722Z,66.73
2018-12-11T01:21:37.478Z,66.55
2018-12-11T01:24:06.127Z,66.86
2018-12-11T01:26:34.944Z,65.47
2018-12-11T01:29:03.694Z,65.78
2018-12-11T01:31:32.349Z,65.28
2018-12-11T01:34:01.134Z,65.04
2018-12-11T01:36:29.854Z,64.82
2018-12-11T01:38:58.500Z,64.92
2018-12-11T01:41:27.153Z,64.20
2018-12-11T01:43:55.872Z,64.21
2018-12-11T01:46:24.571Z,64.58
2018-12-11T01:48:53.398Z,64.56
2018-12-11T01:51:22.235Z,64.02
2018-12-11T01:53:50.911Z,63.93
2018-12-11T01:56:20.097Z,63.62
2018-12-11T01:58:48.865Z,64.21
2018-12-11T02:01:17.661Z,64.16
2018-12-11T02:03:46.476Z,63.83
2018-12-11T02:06:15.208Z,64.56
2018-12-11T02:08:43.971Z,64.20
2018-12-11T02:11:12.689Z,64.10
2018-12-11T02:13:41.613Z,64.05
2018-12-11T02:16:10.305Z,64.23
2018-12-11T02:18:39.034Z,64.52
2018-12-11T02:21:07.748Z,64.37
2018-12-11T02:23:36.416Z,64.48
2018-12-11T02:26:11.742Z,64.43
2018-12-11T02:28:41.010Z,64.76
2018-12-11T02:31:09.846Z,64.56
2018-12-11T02:33:38.578Z,64.51
2018-12-11T02:36:07.390Z,64.54
2018-12-11T02:38:36.229Z,64.66
2018-12-11T02:41:04.930Z,64.37
2018-12-11T02:43:33.778Z,65.00
2018-12-11T02:46:02.429Z,64.30
2018-12-11T02:48:31.135Z,64.14
2018-12-11T02:51:00.183Z,64.48
2018-12-11T02:53:28.903Z,64.18
2018-12-11T02:55:57.605Z,64.18
2018-12-11T02:58:26.282Z,64.11
2018-12-11T03:00:54.961Z,63.87
2018-12-11T03:03:23.670Z,63.78
2018-12-11T03:05:52.645Z,64.07
2018-12-11T03:08:21.315Z,64.40
2018-12-11T03:10:50.587Z,64.06
2018-12-11T03:13:19.350Z,64.49
2018-12-11T03:15:48.029Z,64.41
2018-12-11T03:18:16.669Z,64.82
2018-12-11T03:20:45.428Z,63.95
2018-12-11T03:23:14.167Z,64.21
2018-12-11T03:25:42.850Z,63.66
2018-12-11T03:28:11.556Z,64.14
2018-12-11T03:30:40.498Z,64.03
2018-12-11T03:33:09.519Z,64.49
2018-12-11T03:35:38.253Z,63.96
2018-12-11T03:38:06.976Z,65.05
2018-12-11T03:40:36.260Z,65.51
2018-12-11T03:43:04.931Z,65.17
2018-12-11T03:45:33.676Z,65.96
2018-12-11T03:48:02.523Z,66.32
2018-12-11T03:50:31.186Z,66.58
2018-12-11T03:52:59.904Z,66.27
2018-12-11T03:55:28.673Z,66.69
2018-12-11T03:57:57.413Z,67.64
2018-12-11T04:00:26.125Z,67.27
2018-12-11T04:02:54.865Z,67.48
2018-12-11T04:05:23.641Z,67.58
2018-12-11T04:07:53.095Z,68.41
2018-12-11T04:10:21.788Z,68.49
2018-12-11T04:12:50.558Z,67.79
2018-12-11T04:15:19.585Z,68.35
2018-12-11T04:17:48.333Z,67.86
2018-12-11T04:20:17.160Z,67.67
2018-12-11T04:22:45.868Z,67.77
2018-12-11T04:25:14.664Z,67.51
2018-12-11T04:27:43.367Z,67.55
2018-12-11T04:30:12.746Z,67.73
2018-12-11T04:32:41.459Z,67.60
2018-12-11T04:35:10.111Z,67.79
2018-12-11T04:37:38.788Z,67.62
2018-12-11T04:40:08.515Z,67.52
2018-12-11T04:42:37.210Z,68.24
2018-12-11T04:45:07.226Z,67.20
2018-12-11T04:47:36.024Z,67.38
2018-12-11T04:50:06.085Z,67.24
2018-12-11T04:52:34.755Z,67.68
2018-12-11T04:55:03.999Z,67.65
2018-12-11T04:57:32.713Z,67.16
2018-12-11T05:00:01.437Z,67.48
2018-12-11T05:02:30.201Z,67.40
2018-12-11T05:04:58.924Z,67.37
2018-12-11T05:07:27.701Z,67.81
2018-12-11T05:09:56.473Z,67.30
2018-12-11T05:12:25.149Z,66.87
2018-12-11T05:14:53.915Z,66.97
2018-12-11T05:17:22.642Z,67.01
2018-12-11T05:19:51.354Z,66.31
2018-12-11T05:22:20.086Z,66.65
2018-12-11T05:24:48.816Z,66.76
2018-12-11T05:27:17.553Z,66.55
2018-12-11T05:29:46.334Z,66.33
2018-12-11T05:32:15.012Z,66.38
2018-12-11T05:34:43.735Z,66.93
2018-12-11T05:37:12.776Z,67.12
2018-12-11T05:39:41.464Z,67.45
2018-12-11T05:42:10.149Z,67.66
2018-12-11T05:44:38.900Z,68.05
2018-12-11T05:47:07.699Z,67.92
2018-12-11T05:49:36.480Z,67.84
2018-12-11T05:52:05.199Z,67.76
2018-12-11T05:54:34.039Z,68.90
2018-12-11T05:57:02.759Z,67.27
2018-12-11T05:59:37.910Z,67.48
2018-12-11T06:02:07.784Z,67.47
2018-12-11T06:04:36.470Z,67.51
2018-12-11T06:07:05.293Z,66.82
2018-12-11T06:09:34.004Z,66.22
2018-12-11T06:12:04.175Z,67.00
2018-12-11T06:14:32.991Z,66.36
2018-12-11T06:17:02.728Z,67.03
2018-12-11T06:19:31.855Z,67.01
2018-12-11T06:22:00.636Z,67.76
2018-12-11T06:24:29.349Z,67.71
2018-12-11T06:26:58.081Z,68.01
2018-12-11T06:29:26.809Z,68.54
2018-12-11T06:31:55.717Z,68.07
2018-12-11T06:34:24.449Z,68.70
2018-12-11T06:36:53.102Z,68.46
2018-12-11T06:39:21.885Z,69.03
2018-12-11T06:41:50.619Z,69.00
2018-12-11T06:44:19.336Z,68.42
2018-12-11T06:46:48.105Z,67.74
2018-12-11T06:49:16.788Z,68.40
2018-12-11T06:51:45.510Z,68.24
2018-12-11T06:54:14.166Z,67.95
2018-12-11T06:56:42.944Z,67.58
2018-12-11T06:59:11.681Z,67.79
2018-12-11T07:01:40.384Z,67.59
2018-12-11T07:04:09.123Z,67.61
2018-12-11T07:06:37.807Z,67.74
2018-12-11T07:09:07.528Z,68.25
2018-12-11T07:11:36.190Z,67.25
2018-12-11T07:14:04.849Z,67.06
2018-12-11T07:16:33.696Z,66.76
2018-12-11T07:19:02.416Z,67.21
2018-12-11T07:21:31.558Z,66.94
2018-12-11T07:24:00.267Z,66.76
2018-12-11T07:26:28.965Z,67.07
2018-12-11T07:28:57.637Z,66.62
2018-12-11T07:31:26.394Z,67.11
2018-12-11T07:33:55.085Z,67.40
2018-12-11T07:36:23.789Z,67.62
2018-12-11T07:38:52.556Z,67.49
2018-12-11T07:41:21.250Z,66.62
2018-12-11T07:43:50.076Z,67.14
2018-12-11T07:46:18.750Z,66.23
2018-12-11T07:48:47.475Z,66.39
2018-12-11T07:51:16.140Z,65.87
2018-12-11T07:53:44.798Z,65.22
2018-12-11T07:56:13.491Z,65.30
2018-12-11T07:58:42.173Z,64.55
2018-12-11T08:01:10.919Z,63.80
2018-12-11T08:03:39.602Z,64.19
2018-12-11T08:06:08.333Z,63.29
2018-12-11T08:08:37.022Z,62.32
2018-12-11T08:11:05.786Z,62.35
2018-12-11T08:13:34.519Z,61.74
2018-12-11T08:16:03.339Z,61.73
2018-12-11T08:18:32.257Z,61.51
2018-12-11T08:21:01.296Z,60.83
2018-12-11T08:23:30.021Z,60.96
2018-12-11T08:25:58.727Z,61.41
2018-12-11T08:28:27.410Z,61.06
2018-12-11T08:30:56.125Z,60.84
2018-12-11T08:33:24.898Z,59.63
2018-12-11T08:35:53.595Z,60.83
2018-12-11T08:38:22.321Z,60.51
2018-12-11T08:40:50.999Z,60.00
2018-12-11T08:43:19.769Z,59.44
2018-12-11T08:45:48.453Z,60.29
2018-12-11T08:48:17.127Z,60.10
2018-12-11T08:50:45.849Z,59.59
2018-12-11T08:53:14.597Z,59.18
2018-12-11T08:55:43.255Z,59.99
2018-12-11T08:58:11.928Z,59.16
2018-12-11T09:00:40.657Z,59.06
2018-12-11T09:03:09.409Z,59.55
2018-12-11T09:05:38.106Z,58.66
2018-12-11T09:08:06.889Z,59.39
2018-12-11T09:10:35.631Z,59.58
2018-12-11T09:13:04.329Z,58.88
2018-12-11T09:15:33.044Z,59.35
2018-12-11T09:18:01.803Z,59.65
2018-12-11T09:20:30.584Z,59.81
2018-12-11T09:22:59.283Z,59.71
2018-12-11T09:25:27.972Z,58.50
2018-12-11T09:27:56.717Z,57.22
2018-12-11T09:30:25.529Z,56.76
2018-12-11T09:32:54.568Z,55.92
2018-12-11T09:35:23.294Z,55.34
2018-12-11T09:37:52.026Z,55.59
2018-12-11T09:40:24.482Z,56.35
2018-12-11T09:42:51.637Z,56.56
2018-12-11T09:45:20.356Z,55.43
2018-12-11T09:47:49.132Z,55.46
2018-12-11T09:50:17.798Z,54.88
2018-12-11T09:52:46.581Z,54.45
2018-12-11T09:55:15.562Z,53.60
2018-12-11T09:57:44.270Z,53.36
2018-12-11T10:00:13.693Z,53.22
2018-12-11T10:02:42.421Z,52.98
2018-12-11T10:05:11.143Z,53.33
2018-12-11T10:07:39.846Z,53.69
2018-12-11T10:10:09.537Z,53.68
2018-12-11T10:12:38.290Z,53.13
2018-12-11T10:15:08.081Z,53.59
2018-12-11T10:17:36.810Z,53.80
2018-12-11T10:20:06.521Z,53.49
2018-12-11T10:22:35.620Z,54.73
2018-12-11T10:25:05.650Z,53.91
2018-12-11T10:27:34.422Z,55.35
2018-12-11T10:30:12.017Z,53.29
2018-12-11T10:32:40.733Z,53.82
2018-12-11T10:35:10.309Z,54.63
2018-12-11T10:37:39.026Z,54.00
2018-12-11T10:40:08.266Z,52.81
2018-12-11T10:42:37.132Z,53.14
2018-12-11T10:45:06.980Z,52.40
2018-12-11T10:47:35.766Z,52.72
2018-12-11T10:50:05.454Z,52.75
2018-12-11T10:52:34.199Z,52.41
2018-12-11T10:55:03.006Z,52.32
2018-12-11T10:57:31.767Z,52.35
2018-12-11T11:00:00.487Z,53.00
2018-12-11T11:02:29.288Z,53.43
2018-12-11T11:04:58.014Z,52.59
2018-12-11T11:07:26.707Z,52.53
2018-12-11T11:09:55.456Z,52.54
2018-12-11T11:12:24.180Z,52.11
2018-12-11T11:14:52.997Z,52.32
2018-12-11T11:17:21.993Z,52.23
2018-12-11T11:19:50.853Z,52.58
2018-12-11T11:22:19.633Z,53.03
2018-12-11T11:24:48.488Z,53.53
2018-12-11T11:27:17.292Z,53.96
2018-12-11T11:29:46.007Z,53.95
2018-12-11T11:32:14.773Z,51.89
2018-12-11T11:34:43.446Z,51.33
2018-12-11T11:37:12.121Z,50.61
2018-12-11T11:39:40.826Z,50.44
2018-12-11T11:42:09.501Z,50.12
2018-12-11T11:44:39.848Z,51.27
2018-12-11T11:47:09.720Z,52.37
2018-12-11T11:49:38.428Z,52.61
2018-12-11T11:52:07.156Z,52.62
2018-12-11T11:54:35.804Z,51.95
2018-12-11T11:57:04.492Z,52.24
2018-12-11T11:59:33.191Z,52.65
2018-12-11T12:02:01.962Z,52.39
2018-12-11T12:04:30.680Z,51.07
2018-12-11T12:06:59.414Z,50.63
2018-12-11T12:09:28.131Z,50.39
2018-12-11T12:11:56.903Z,49.69
2018-12-11T12:14:25.605Z,49.38
2018-12-11T12:16:54.454Z,49.93
2018-12-11T12:19:23.184Z,49.63
2018-12-11T12:21:52.450Z,50.88
2018-12-11T12:24:21.162Z,51.78
2018-12-11T12:26:49.897Z,52.22
2018-12-11T12:29:18.609Z,53.10
2018-12-11T12:31:47.279Z,52.80
2018-12-11T12:34:16.025Z,53.82
2018-12-11T12:36:44.833Z,54.03
2018-12-11T12:39:13.515Z,54.49
2018-12-11T12:41:42.268Z,55.01
2018-12-11T12:44:10.930Z,55.43
2018-12-11T12:46:39.694Z,55.37
2018-12-11T12:49:08.421Z,55.34
2018-12-11T12:51:37.072Z,56.57
2018-12-11T12:54:05.799Z,56.96
2018-12-11T12:56:34.703Z,57.07
2018-12-11T12:59:04.383Z,56.98
2018-12-11T13:01:33.118Z,57.47
2018-12-11T13:04:01.822Z,57.35
2018-12-11T13:06:31.130Z,57.43
2018-12-11T13:09:00.428Z,58.17
2018-12-11T13:11:29.078Z,58.02
2018-12-11T13:13:58.439Z,58.02
2018-12-11T13:16:27.218Z,57.98
2018-12-11T13:18:55.889Z,58.33
2018-12-11T13:21:24.666Z,58.60
2018-12-11T13:23:53.320Z,58.32
2018-12-11T13:26:21.987Z,58.07
2018-12-11T13:28:50.653Z,58.02
2018-12-11T13:31:19.335Z,57.17
2018-12-11T13:33:48.043Z,56.56
2018-12-11T13:36:17.102Z,57.37
2018-12-11T13:38:46.469Z,57.54
2018-12-11T13:41:15.448Z,58.08
2018-12-11T13:43:44.517Z,58.07
2018-12-11T13:46:13.298Z,58.59
2018-12-11T13:48:42.828Z,58.34
2018-12-11T13:51:11.914Z,58.62
2018-12-11T13:53:40.574Z,58.44
2018-12-11T13:56:09.433Z,58.92
2018-12-11T13:58:38.155Z,58.24
2018-12-11T14:01:06.905Z,58.35
2018-12-11T14:03:35.744Z,58.86
2018-12-11T14:06:04.411Z,58.25
2018-12-11T14:08:33.084Z,57.95
2018-12-11T14:11:01.842Z,58.03
2018-12-11T14:13:30.492Z,57.46
2018-12-11T14:15:59.262Z,57.51
2018-12-11T14:18:27.964Z,57.25
2018-12-11T14:20:56.662Z,57.73
2018-12-11T14:23:25.356Z,57.19
2018-12-11T14:25:54.042Z,57.51
2018-12-11T14:28:22.734Z,57.32
2018-12-11T14:30:51.987Z,57.04
2018-12-11T14:33:20.685Z,56.52
2018-12-11T14:35:50.149Z,57.46
2018-12-11T14:38:18.827Z,57.60
2018-12-11T14:40:47.498Z,57.81
2018-12-11T14:43:16.202Z,57.76
2018-12-11T14:45:45.000Z,57.13
2018-12-11T14:48:13.694Z,57.22
2018-12-11T14:50:42.397Z,56.83
2018-12-11T14:53:11.188Z,56.93
2018-12-11T14:55:39.865Z,57.32
2018-12-11T14:58:09.508Z,58.76
2018-12-11T15:00:38.261Z,58.90
2018-12-11T15:03:06.954Z,60.15
2018-12-11T15:05:35.668Z,60.24
2018-12-11T15:08:04.759Z,60.51
2018-12-11T15:10:33.867Z,61.01
2018-12-11T15:13:02.998Z,60.25
2018-12-11T15:15:31.733Z,60.31
2018-12-11T15:18:00.456Z,60.34
2018-12-11T15:20:29.138Z,60.08
2018-12-11T15:22:57.795Z,59.91
2018-12-11T15:25:26.489Z,59.76
2018-12-11T15:27:55.268Z,60.18
2018-12-11T15:30:23.965Z,59.68
2018-12-11T15:32:53.063Z,60.23
2018-12-11T15:35:21.787Z,59.54
2018-12-11T15:37:50.536Z,59.81
2018-12-11T15:40:19.249Z,59.47
2018-12-11T15:42:48.013Z,58.88
2018-12-11T15:45:16.798Z,59.43
2018-12-11T15:47:45.458Z,59.63
2018-12-11T15:50:14.152Z,59.49
2018-12-11T15:52:42.858Z,60.13
2018-12-11T15:55:11.591Z,60.37
2018-12-11T15:57:40.512Z,59.90
2018-12-11T16:00:12.874Z,60.00
2018-12-11T16:02:41.618Z,60.38
2018-12-11T16:05:10.905Z,60.75
2018-12-11T16:07:39.580Z,60.54
2018-12-11T16:10:09.131Z,61.27
2018-12-11T16:12:37.886Z,61.28
2018-12-11T16:15:07.684Z,60.89
2018-12-11T16:17:36.454Z,61.25
2018-12-11T16:20:06.811Z,60.97
2018-12-11T16:22:35.755Z,60.81
2018-12-11T16:25:05.983Z,61.37
2018-12-11T16:27:35.244Z,60.93
2018-12-11T16:30:11.532Z,61.44
2018-12-11T16:32:40.595Z,61.03
2018-12-11T16:35:09.740Z,61.64
2018-12-11T16:37:38.640Z,61.92
2018-12-11T16:40:08.485Z,62.12
2018-12-11T16:42:37.179Z,61.81
2018-12-11T16:45:07.302Z,61.26
2018-12-11T16:47:36.057Z,60.57
2018-12-11T16:50:05.563Z,60.94
2018-12-11T16:52:34.379Z,60.75
2018-12-11T16:55:03.129Z,61.30
2018-12-11T16:57:31.957Z,61.12
2018-12-11T17:00:00.709Z,61.25
2018-12-11T17:02:29.492Z,61.55
2018-12-11T17:05:05.881Z,61.30
2018-12-11T17:07:34.565Z,61.15
2018-12-11T17:10:03.371Z,61.23
2018-12-11T17:12:33.038Z,61.31
2018-12-11T17:15:03.055Z,60.67
2018-12-11T17:17:32.339Z,61.33
2018-12-11T17:20:01.041Z,61.28
2018-12-11T17:22:31.522Z,60.86
2018-12-11T17:25:00.290Z,61.77
2018-12-11T17:27:29.027Z,61.31
2018-12-11T17:29:57.718Z,61.27
2018-12-11T17:32:26.408Z,61.95
2018-12-11T17:35:03.386Z,61.99
2018-12-11T17:37:32.295Z,61.58
2018-12-11T17:40:01.095Z,62.11
2018-12-11T17:42:29.814Z,61.94
2018-12-11T17:44:58.533Z,61.96
2018-12-11T17:47:27.260Z,61.78
2018-12-11T17:49:56.031Z,61.91
2018-12-11T17:52:24.771Z,62.12
2018-12-11T17:54:53.434Z,62.63
2018-12-11T17:57:22.237Z,62.15
2018-12-11T17:59:50.949Z,62.15
2018-12-11T18:02:24.886Z,62.98
2018-12-11T18:04:53.760Z,63.05
2018-12-11T18:07:22.588Z,63.31
2018-12-11T18:09:51.308Z,62.81
2018-12-11T18:12:20.027Z,63.17
2018-12-11T18:14:48.717Z,62.78
2018-12-11T18:17:17.380Z,63.25
2018-12-11T18:19:46.086Z,63.04
2018-12-11T18:22:14.871Z,63.55
2018-12-11T18:24:43.605Z,62.88
2018-12-11T18:27:12.258Z,63.15
2018-12-11T18:29:40.978Z,63.23
2018-12-11T18:32:10.376Z,62.84
2018-12-11T18:34:45.178Z,62.91
2018-12-11T18:37:14.795Z,62.42
2018-12-11T18:39:43.623Z,62.31
2018-12-11T18:42:12.397Z,62.20
2018-12-11T18:44:42.038Z,62.36
2018-12-11T18:47:10.754Z,63.25
2018-12-11T18:49:40.337Z,63.40
2018-12-11T18:52:09.346Z,62.96
2018-12-11T18:54:38.118Z,63.06
2018-12-11T18:57:06.923Z,63.59
2018-12-11T18:59:35.740Z,63.55
2018-12-11T19:02:04.806Z,62.91
2018-12-11T19:04:33.518Z,63.52
2018-12-11T19:07:02.314Z,62.99
2018-12-11T19:09:31.158Z,63.53
2018-12-11T19:12:00.251Z,63.14
2018-12-11T19:14:30.281Z,63.66
2018-12-11T19:16:59.036Z,64.11
2018-12-11T19:19:27.746Z,64.62
2018-12-11T19:21:56.475Z,63.68
2018-12-11T19:24:31.600Z,64.12
2018-12-11T19:27:01.031Z,63.98
2018-12-11T19:29:29.753Z,63.87
2018-12-11T19:31:58.934Z,63.92
2018-12-11T19:34:27.770Z,64.61
2018-12-11T19:36:56.540Z,64.26
2018-12-11T19:39:25.332Z,64.18
2018-12-11T19:41:54.039Z,63.56
2018-12-11T19:44:22.739Z,64.01
2018-12-11T19:46:51.520Z,63.58
2018-12-11T19:49:20.290Z,63.54
2018-12-11T19:51:49.059Z,63.84
2018-12-11T19:54:17.704Z,63.79
2018-12-11T19:56:46.367Z,64.07
2018-12-11T19:59:15.173Z,64.23
2018-12-11T20:01:44.033Z,64.18
2018-12-11T20:04:13.383Z,64.14
2018-12-11T20:06:42.259Z,64.46
2018-12-11T20:09:10.949Z,64.21
2018-12-11T20:11:39.669Z,64.27
2018-12-11T20:14:08.463Z,64.11
2018-12-11T20:16:37.273Z,63.96
2018-12-11T20:19:07.042Z,64.83
2018-12-11T20:21:35.861Z,64.42
2018-12-11T20:24:05.070Z,64.37
2018-12-11T20:26:39.253Z,64.09
2018-12-11T20:29:06.717Z,64.70
2018-12-11T20:31:35.445Z,65.07
2018-12-11T20:34:04.172Z,65.27
2018-12-11T20:36:33.026Z,65.28
2018-12-11T20:39:01.804Z,64.81
2018-12-11T20:41:31.158Z,65.09
2018-12-11T20:43:59.918Z,65.57
2018-12-11T20:46:28.626Z,65.43
2018-12-11T20:48:57.311Z,65.99
2018-12-11T20:51:26.077Z,66.34
2018-12-11T20:53:54.888Z,66.30
2018-12-11T20:56:23.679Z,66.91
2018-12-11T20:58:52.688Z,66.94
2018-12-11T21:01:21.367Z,66.63
2018-12-11T21:03:50.273Z,67.35
2018-12-11T21:06:19.240Z,67.03
2018-12-11T21:08:47.980Z,67.80
2018-12-11T21:11:16.970Z,68.01
2018-12-11T21:13:45.727Z,67.18
2018-12-11T21:16:14.420Z,67.36
2018-12-11T21:18:43.751Z,67.61
2018-12-11T21:21:12.956Z,67.61
2018-12-11T21:23:41.619Z,67.14
2018-12-11T21:26:11.255Z,67.54
2018-12-11T21:28:39.998Z,67.33
2018-12-11T21:31:08.730Z,67.58
2018-12-11T21:33:37.399Z,67.58
2018-12-11T21:36:06.117Z,66.86
2018-12-11T21:38:34.807Z,66.97
2018-12-11T21:41:03.528Z,66.87
2018-12-11T21:43:32.213Z,66.44
2018-12-11T21:46:01.040Z,66.62
2018-12-11T21:48:29.797Z,65.91
2018-12-11T21:50:58.458Z,65.88
2018-12-11T21:53:27.185Z,66.08
2018-12-11T21:55:55.902Z,65.79
2018-12-11T21:58:24.577Z,65.71
2018-12-11T22:00:53.881Z,65.46
2018-12-11T22:03:22.553Z,65.40
2018-12-11T22:05:51.290Z,64.93
2018-12-11T22:08:20.101Z,65.25
2018-12-11T22:10:49.050Z,64.94
2018-12-11T22:13:17.747Z,64.81
2018-12-11T22:15:46.474Z,64.56
2018-12-11T22:18:15.199Z,64.91
2018-12-11T22:20:44.152Z,64.94
2018-12-11T22:23:12.866Z,64.49
2018-12-11T22:25:41.896Z,63.98
2018-12-11T22:28:10.624Z,65.05
2018-12-11T22:30:39.341Z,64.46
2018-12-11T22:33:08.020Z,65.06
2018-12-11T22:35:36.752Z,64.60
2018-12-11T22:38:05.533Z,65.12
2018-12-11T22:40:34.293Z,64.63
2018-12-11T22:43:08.053Z,65.75
2018-12-11T22:45:36.741Z,65.09
2018-12-11T22:48:05.460Z,65.00
2018-12-11T22:50:34.269Z,64.70
2018-12-11T22:53:03.049Z,65.43
2018-12-11T22:55:31.762Z,65.31
2018-12-11T22:58:00.523Z,65.04
2018-12-11T23:00:30.341Z,65.13
2018-12-11T23:02:59.848Z,65.66
2018-12-11T23:05:28.971Z,66.02
2018-12-11T23:07:57.736Z,65.14
2018-12-11T23:10:26.412Z,65.50
2018-12-11T23:12:55.085Z,64.73
2018-12-11T23:15:23.768Z,65.02
2018-12-11T23:17:52.451Z,64.34
2018-12-11T23:20:21.166Z,64.79
2018-12-11T23:22:49.961Z,63.60
2018-12-11T23:25:19.043Z,63.70
2018-12-11T23:27:47.745Z,62.88
2018-12-11T23:30:16.575Z,62.45
2018-12-11T23:32:45.299Z,62.28
2018-12-11T23:35:14.600Z,62.96
2018-12-11T23:37:43.328Z,62.38
2018-12-11T23:40:12.035Z,62.10
2018-12-11T23:42:40.718Z,62.75
2018-12-11T23:45:09.407Z,62.49
2018-12-11T23:47:38.155Z,62.52
2018-12-11T23:50:07.350Z,62.43
2018-12-11T23:52:36.019Z,61.97
2018-12-11T23:55:05.764Z,62.73
2018-12-11T23:57:34.468Z,62.20
